createdAt,value
2022-07-29T00:01:43.845Z,100325.06
2022-07-29T00:04:12.110Z,100333.75
2022-07-29T00:06:41.997Z,100341.59
2022-07-29T00:09:12.416Z,100343.66
2022-07-29T00:11:40.355Z,100345.53
2022-07-29T00:14:08.609Z,100345.53
2022-07-29T00:16:37.018Z,100346.16
2022-07-29T00:19:05.709Z,100340.59
2022-07-29T00:21:36.112Z,100344.09
2022-07-29T00:24:05.823Z,100337.69
2022-07-29T00:26:33.921Z,100337.31
2022-07-29T00:29:32.518Z,100338.13
2022-07-29T00:31:53.210Z,100339.41
2022-07-29T00:34:40.992Z,100346.66
2022-07-29T00:37:09.180Z,100335.25
2022-07-29T00:39:38.477Z,100345.38
2022-07-29T00:42:07.284Z,100343.09
2022-07-29T00:44:38.926Z,100345.97
2022-07-29T00:47:07.596Z,100350.50
2022-07-29T00:49:36.006Z,100345.97
2022-07-29T00:52:04.993Z,100353.84
2022-07-29T00:54:33.030Z,100363.13
2022-07-29T00:57:03.242Z,100362.94
2022-07-29T00:59:35.498Z,100366.63
2022-07-29T01:02:03.956Z,100369.53
2022-07-29T01:04:32.976Z,100382.28
2022-07-29T01:07:05.989Z,100380.84
2022-07-29T01:09:45.205Z,100377.75
2022-07-29T01:12:23.285Z,100376.72
2022-07-29T01:14:52.115Z,100379.59
2022-07-29T01:17:23.906Z,100387.81
2022-07-29T01:19:59.974Z,100381.00
2022-07-29T01:22:33.828Z,100378.97
2022-07-29T01:25:19.759Z,100373.19
2022-07-29T01:28:10.089Z,100383.22
2022-07-29T01:30:48.304Z,100376.03
2022-07-29T01:33:33.703Z,100378.88
2022-07-29T01:36:03.620Z,100375.13
2022-07-29T01:38:35.045Z,100368.06
2022-07-29T01:41:11.043Z,100361.28
2022-07-29T01:43:46.463Z,100355.91
2022-07-29T01:46:24.761Z,100348.41
2022-07-29T01:48:57.210Z,100348.19
2022-07-29T01:51:31.307Z,100349.81
2022-07-29T01:54:05.952Z,100348.13
2022-07-29T01:56:35.342Z,100346.69
2022-07-29T01:59:06.621Z,100342.06
2022-07-29T02:01:38.135Z,100346.16
2022-07-29T02:04:12.164Z,100349.88
2022-07-29T02:07:03.841Z,100341.19
2022-07-29T02:09:33.730Z,100339.47
2022-07-29T02:12:04.131Z,100334.25
2022-07-29T02:14:38.296Z,100335.66
2022-07-29T02:17:08.130Z,100338.28
2022-07-29T02:19:39.391Z,100331.84
2022-07-29T02:22:11.051Z,100336.31
2022-07-29T02:24:41.110Z,100330.72
2022-07-29T02:27:10.286Z,100341.16
2022-07-29T02:29:41.414Z,100345.44
2022-07-29T02:32:14.688Z,100343.34
2022-07-29T02:34:44.969Z,100348.06
2022-07-29T02:37:13.836Z,100345.75
2022-07-29T02:39:44.325Z,100343.63
2022-07-29T02:42:16.843Z,100339.69
2022-07-29T02:44:45.523Z,100342.72
2022-07-29T02:47:21.003Z,100337.31
2022-07-29T02:49:57.225Z,100337.88
2022-07-29T02:52:33.686Z,100331.63
2022-07-29T02:55:16.965Z,100330.50
2022-07-29T02:57:53.956Z,100331.25
2022-07-29T03:00:25.737Z,100326.28
2022-07-29T03:02:57.419Z,100324.16
2022-07-29T03:05:26.452Z,100329.06
2022-07-29T03:07:59.308Z,100329.91
2022-07-29T03:10:28.918Z,100323.09
2022-07-29T03:12:58.427Z,100317.53
2022-07-29T03:15:28.414Z,100326.38
2022-07-29T03:17:58.691Z,100314.03
2022-07-29T03:20:27.398Z,100314.22
2022-07-29T03:22:57.489Z,100319.94
2022-07-29T03:25:28.253Z,100318.66
2022-07-29T03:27:57.361Z,100316.81
2022-07-29T03:30:25.695Z,100315.34
2022-07-29T03:32:54.172Z,100317.56
2022-07-29T03:35:26.082Z,100308.69
2022-07-29T03:37:54.350Z,100312.56
2022-07-29T03:40:26.676Z,100307.41
2022-07-29T03:42:57.442Z,100313.22
2022-07-29T03:45:27.413Z,100313.22
2022-07-29T03:48:01.457Z,100310.34
2022-07-29T03:50:33.336Z,100311.66
2022-07-29T03:53:02.833Z,100311.47
2022-07-29T03:55:45.249Z,100304.53
2022-07-29T03:58:16.693Z,100299.44
2022-07-29T04:00:47.579Z,100295.56
2022-07-29T04:03:18.000Z,100296.19
2022-07-29T04:05:47.456Z,100293.59
2022-07-29T04:08:17.762Z,100296.06
2022-07-29T04:10:48.388Z,100300.41
2022-07-29T04:13:19.153Z,100307.81
2022-07-29T04:15:47.139Z,100310.84
2022-07-29T04:18:15.059Z,100310.41
2022-07-29T04:20:43.055Z,100308.50
2022-07-29T04:23:12.584Z,100299.34
2022-07-29T04:25:44.063Z,100301.97
2022-07-29T04:28:12.298Z,100309.88
2022-07-29T04:30:40.808Z,100312.31
2022-07-29T04:33:09.342Z,100312.03
2022-07-29T04:35:39.006Z,100312.59
2022-07-29T04:38:19.473Z,100305.72
2022-07-29T04:40:47.415Z,100310.63
2022-07-29T04:43:22.411Z,100317.34
2022-07-29T04:45:51.777Z,100312.38
2022-07-29T04:48:28.363Z,100306.41
2022-07-29T04:50:57.066Z,100314.13
2022-07-29T04:53:26.867Z,100304.44
2022-07-29T04:55:57.810Z,100309.16
2022-07-29T04:58:25.954Z,100310.19
2022-07-29T05:00:53.957Z,100314.88
2022-07-29T05:03:22.007Z,100313.38
2022-07-29T05:05:50.131Z,100317.06
2022-07-29T05:08:18.300Z,100315.81
2022-07-29T05:10:50.144Z,100322.97
2022-07-29T05:13:18.182Z,100308.13
2022-07-29T05:15:46.250Z,100309.16
2022-07-29T05:18:15.064Z,100309.31
2022-07-29T05:20:43.390Z,100316.88
2022-07-29T05:23:13.664Z,100318.72
2022-07-29T05:25:44.201Z,100318.72
2022-07-29T05:28:14.643Z,100315.03
2022-07-29T05:30:43.081Z,100318.34
2022-07-29T05:33:35.887Z,100318.81
2022-07-29T05:36:00.935Z,100317.47
2022-07-29T05:38:29.293Z,100319.56
2022-07-29T05:41:00.897Z,100328.22
2022-07-29T05:43:30.518Z,100322.53
2022-07-29T05:45:59.179Z,100325.47
2022-07-29T05:48:29.960Z,100325.94
2022-07-29T05:50:58.035Z,100322.69
2022-07-29T05:53:25.996Z,100321.50
2022-07-29T05:55:54.145Z,100331.47
2022-07-29T05:58:22.248Z,100331.31
2022-07-29T06:00:53.414Z,100327.25
2022-07-29T06:03:21.424Z,100329.75
2022-07-29T06:05:51.557Z,100332.06
2022-07-29T06:08:19.565Z,100334.34
2022-07-29T06:10:47.834Z,100339.44
2022-07-29T06:13:16.788Z,100339.50
2022-07-29T06:15:44.929Z,100343.75
2022-07-29T06:18:14.836Z,100345.47
2022-07-29T06:20:43.051Z,100352.38
2022-07-29T06:23:13.188Z,100347.09
2022-07-29T06:25:42.261Z,100346.34
2022-07-29T06:28:10.337Z,100347.03
2022-07-29T06:30:38.360Z,100340.13
2022-07-29T06:33:09.475Z,100349.47
2022-07-29T06:35:41.714Z,100346.41
2022-07-29T06:38:33.703Z,100342.06
2022-07-29T06:41:02.090Z,100344.09
2022-07-29T06:43:32.809Z,100345.13
2022-07-29T06:46:02.669Z,100347.81
2022-07-29T06:48:31.246Z,100348.66
2022-07-29T06:51:01.076Z,100355.25
2022-07-29T06:53:30.699Z,100353.03
2022-07-29T06:56:00.191Z,100345.09
2022-07-29T06:58:29.840Z,100352.31
2022-07-29T07:00:58.850Z,100354.06
2022-07-29T07:03:27.408Z,100349.59
2022-07-29T07:05:58.264Z,100359.56
2022-07-29T07:08:29.963Z,100353.41
2022-07-29T07:10:58.151Z,100349.56
2022-07-29T07:13:29.359Z,100351.72
2022-07-29T07:15:57.548Z,100348.53
2022-07-29T07:18:25.664Z,100351.94
2022-07-29T07:20:53.968Z,100354.09
2022-07-29T07:23:22.029Z,100352.91
2022-07-29T07:25:51.426Z,100357.06
2022-07-29T07:28:24.570Z,100360.44
2022-07-29T07:30:53.522Z,100356.75
2022-07-29T07:33:21.724Z,100360.28
2022-07-29T07:35:51.817Z,100361.84
2022-07-29T07:38:25.009Z,100358.75
2022-07-29T07:40:54.581Z,100355.69
2022-07-29T07:43:22.774Z,100361.53
2022-07-29T07:45:50.918Z,100361.53
2022-07-29T07:48:19.200Z,100365.25
2022-07-29T07:50:51.558Z,100358.88
2022-07-29T07:53:19.795Z,100363.25
2022-07-29T07:56:09.937Z,100363.06
2022-07-29T07:58:40.152Z,100361.88
2022-07-29T08:01:09.070Z,100355.25
2022-07-29T08:03:37.148Z,100365.19
2022-07-29T08:06:05.917Z,100360.44
2022-07-29T08:08:37.232Z,100357.75
2022-07-29T08:11:09.662Z,100365.41
2022-07-29T08:13:41.402Z,100357.31
2022-07-29T08:16:16.085Z,100357.94
2022-07-29T08:18:48.180Z,100357.94
2022-07-29T08:21:17.237Z,100361.66
2022-07-29T08:23:57.750Z,100361.06
2022-07-29T08:26:27.055Z,100360.22
2022-07-29T08:28:56.508Z,100368.69
2022-07-29T08:31:24.556Z,100368.50
2022-07-29T08:33:52.537Z,100366.41
2022-07-29T08:36:21.955Z,100357.66
2022-07-29T08:38:50.423Z,100360.75
2022-07-29T08:41:19.948Z,100358.22
2022-07-29T08:43:48.517Z,100361.09
2022-07-29T08:46:18.929Z,100359.03
2022-07-29T08:48:47.059Z,100358.97
2022-07-29T08:51:19.963Z,100352.13
2022-07-29T08:53:50.070Z,100350.66
2022-07-29T08:56:22.320Z,100350.41
2022-07-29T08:58:52.692Z,100357.66
2022-07-29T09:01:36.273Z,100356.34
2022-07-29T09:04:14.366Z,100356.25
2022-07-29T09:06:47.126Z,100352.25
2022-07-29T09:09:17.366Z,100354.50
2022-07-29T09:11:46.229Z,100348.38
2022-07-29T09:14:16.764Z,100346.31
2022-07-29T09:16:57.108Z,100342.72
2022-07-29T09:19:30.548Z,100348.88
2022-07-29T09:22:03.710Z,100343.25
2022-07-29T09:24:41.008Z,100342.97
2022-07-29T09:27:19.978Z,100339.94
2022-07-29T09:29:48.143Z,100341.09
2022-07-29T09:32:19.637Z,100333.78
2022-07-29T09:34:47.767Z,100332.72
2022-07-29T09:37:28.550Z,100332.56
2022-07-29T09:39:59.037Z,100331.50
2022-07-29T09:42:31.050Z,100327.41
2022-07-29T09:44:59.137Z,100330.72
2022-07-29T09:47:45.772Z,100325.75
2022-07-29T09:50:15.962Z,100321.41
2022-07-29T09:52:49.012Z,100319.81
2022-07-29T09:55:18.201Z,100326.75
2022-07-29T09:57:50.110Z,100324.78
2022-07-29T10:00:20.863Z,100324.38
2022-07-29T10:02:51.052Z,100323.91
2022-07-29T10:05:21.823Z,100322.53
2022-07-29T10:07:54.070Z,100315.97
2022-07-29T10:10:24.991Z,100320.09
2022-07-29T10:12:55.142Z,100322.81
2022-07-29T10:15:27.451Z,100318.56
2022-07-29T10:17:59.097Z,100302.84
2022-07-29T10:20:29.699Z,100303.94
2022-07-29T10:23:02.120Z,100307.28
2022-07-29T10:25:30.117Z,100295.88
2022-07-29T10:27:58.782Z,100302.00
2022-07-29T10:30:28.759Z,100300.00
2022-07-29T10:33:24.438Z,100304.63
2022-07-29T10:36:06.696Z,100307.09
2022-07-29T10:38:57.962Z,100307.06
2022-07-29T10:41:49.651Z,100308.22
2022-07-29T10:44:23.129Z,100303.88
2022-07-29T10:46:55.063Z,100301.13
2022-07-29T10:49:31.155Z,100300.09
2022-07-29T10:52:01.956Z,100302.06
2022-07-29T10:54:45.882Z,100297.72
2022-07-29T10:57:16.109Z,100298.47
2022-07-29T10:59:46.222Z,100295.31
2022-07-29T11:02:54.332Z,100294.41
2022-07-29T11:05:32.327Z,100289.88
2022-07-29T11:08:27.905Z,100289.00
2022-07-29T11:11:39.582Z,100291.81
2022-07-29T11:14:12.315Z,100285.72
2022-07-29T11:17:06.904Z,100286.53
2022-07-29T11:19:37.239Z,100280.72
2022-07-29T11:22:16.491Z,100280.03
2022-07-29T11:24:50.238Z,100279.56
2022-07-29T11:27:21.073Z,100283.94
2022-07-29T11:29:55.089Z,100279.41
2022-07-29T11:32:25.725Z,100277.00
2022-07-29T11:38:29.216Z,100286.19
2022-07-29T11:41:22.532Z,100274.38
2022-07-29T11:43:53.221Z,100267.53
2022-07-29T11:46:47.710Z,100267.78
2022-07-29T11:49:32.490Z,100267.06
2022-07-29T11:52:04.271Z,100268.19
2022-07-29T11:54:57.074Z,100271.19
2022-07-29T11:57:36.434Z,100260.09
2022-07-29T12:00:12.339Z,100250.66
2022-07-29T12:03:00.793Z,100256.16
2022-07-29T12:05:38.475Z,100251.31
2022-07-29T12:08:20.725Z,100249.75
2022-07-29T12:10:52.779Z,100247.84
2022-07-29T12:13:37.638Z,100243.53
2022-07-29T12:16:06.723Z,100241.19
2022-07-29T12:18:34.835Z,100227.41
2022-07-29T12:21:04.788Z,100238.47
2022-07-29T12:23:34.284Z,100232.25
2022-07-29T12:26:07.562Z,100229.56
2022-07-29T12:28:41.370Z,100228.84
2022-07-29T12:31:43.806Z,100227.53
2022-07-29T12:34:06.535Z,100231.38
2022-07-29T12:36:34.830Z,100228.66
2022-07-29T12:39:03.015Z,100229.59
2022-07-29T12:41:32.613Z,100221.50
2022-07-29T12:44:00.643Z,100217.72
2022-07-29T12:46:31.434Z,100223.97
2022-07-29T12:48:59.649Z,100205.38
2022-07-29T12:51:32.046Z,100208.13
2022-07-29T12:54:09.015Z,100197.50
2022-07-29T12:56:43.239Z,100205.84
2022-07-29T12:59:16.318Z,100205.22
2022-07-29T13:01:44.678Z,100197.06
2022-07-29T13:04:12.584Z,100194.59
2022-07-29T13:06:45.799Z,100190.50
2022-07-29T13:09:16.076Z,100191.06
2022-07-29T13:11:50.305Z,100189.28
2022-07-29T13:14:33.689Z,100183.66
2022-07-29T13:17:06.980Z,100190.31
2022-07-29T13:19:41.206Z,100190.06
2022-07-29T13:22:09.822Z,100188.22
2022-07-29T13:24:50.268Z,100181.91
2022-07-29T13:27:21.295Z,100185.72
2022-07-29T13:29:52.214Z,100189.53
2022-07-29T13:32:27.747Z,100182.97
2022-07-29T13:34:57.417Z,100190.00
2022-07-29T13:37:25.714Z,100185.91
2022-07-29T13:39:55.100Z,100183.69
2022-07-29T13:42:28.058Z,100182.38
2022-07-29T13:44:56.242Z,100186.44
2022-07-29T13:47:32.703Z,100174.72
2022-07-29T13:50:02.228Z,100168.38
2022-07-29T13:52:32.543Z,100165.53
2022-07-29T13:55:00.869Z,100165.16
2022-07-29T13:57:30.829Z,100159.03
2022-07-29T13:59:58.931Z,100161.00
2022-07-29T14:02:26.986Z,100152.47
2022-07-29T14:04:57.297Z,100163.78
2022-07-29T14:07:27.904Z,100163.25
2022-07-29T14:09:55.819Z,100169.50
2022-07-29T14:12:23.846Z,100161.69
2022-07-29T14:14:53.256Z,100153.53
2022-07-29T14:17:21.462Z,100163.84
2022-07-29T14:19:49.512Z,100161.94
2022-07-29T14:22:20.041Z,100152.09
2022-07-29T14:24:51.431Z,100151.19
2022-07-29T14:27:19.369Z,100154.94
2022-07-29T14:29:47.347Z,100157.56
2022-07-29T14:32:19.287Z,100161.03
2022-07-29T14:34:50.415Z,100166.34
2022-07-29T14:37:20.905Z,100171.41
2022-07-29T14:39:48.804Z,100171.91
2022-07-29T14:42:18.859Z,100170.03
2022-07-29T14:44:48.747Z,100181.91
2022-07-29T14:47:17.335Z,100184.63
2022-07-29T14:49:47.035Z,100176.47
2022-07-29T14:52:15.334Z,100180.63
2022-07-29T14:54:43.404Z,100179.09
2022-07-29T14:57:13.874Z,100178.97
2022-07-29T14:59:43.885Z,100178.88
2022-07-29T15:02:11.903Z,100180.38
2022-07-29T15:04:41.520Z,100193.59
2022-07-29T15:07:10.792Z,100192.25
2022-07-29T15:09:49.658Z,100196.94
2022-07-29T15:12:18.285Z,100220.06
2022-07-29T15:14:46.265Z,100240.94
2022-07-29T15:17:16.800Z,100273.72
2022-07-29T15:19:44.784Z,100249.88
2022-07-29T15:22:14.445Z,100257.38
2022-07-29T15:24:42.410Z,100273.38
2022-07-29T15:27:14.875Z,100281.13
2022-07-29T15:29:45.738Z,100287.34
2022-07-29T15:32:13.824Z,100297.41
2022-07-29T15:34:44.425Z,100283.91
2022-07-29T15:37:13.806Z,100291.28
2022-07-29T15:39:41.659Z,100292.69
2022-07-29T15:42:09.711Z,100292.94
2022-07-29T15:44:37.667Z,100285.00
2022-07-29T15:47:07.029Z,100296.19
2022-07-29T15:49:47.887Z,100308.38
2022-07-29T15:52:25.344Z,100313.81
2022-07-29T15:54:55.038Z,100314.94
2022-07-29T15:57:23.464Z,100311.06
2022-07-29T15:59:51.922Z,100314.50
2022-07-29T16:02:20.587Z,100302.28
2022-07-29T16:04:48.749Z,100304.16
2022-07-29T16:07:18.347Z,100303.25
2022-07-29T16:09:52.433Z,100307.38
2022-07-29T16:12:23.372Z,100303.28
2022-07-29T16:14:51.981Z,100303.41
2022-07-29T16:17:20.912Z,100305.78
2022-07-29T16:19:49.532Z,100302.94
2022-07-29T16:22:18.849Z,100306.34
2022-07-29T16:24:46.969Z,100307.19
2022-07-29T16:27:15.431Z,100298.56
2022-07-29T16:29:43.687Z,100299.44
2022-07-29T16:32:11.882Z,100301.69
2022-07-29T16:34:39.929Z,100314.28
2022-07-29T16:37:10.107Z,100320.47
2022-07-29T16:39:39.651Z,100323.91
2022-07-29T16:42:09.932Z,100324.59
2022-07-29T16:44:40.680Z,100321.09
2022-07-29T16:47:08.623Z,100322.38
2022-07-29T16:49:38.447Z,100321.22
2022-07-29T16:52:07.611Z,100327.41
2022-07-29T16:54:40.997Z,100326.72
2022-07-29T16:57:09.560Z,100320.91
2022-07-29T16:59:43.491Z,100319.78
2022-07-29T17:02:14.077Z,100310.75
2022-07-29T17:04:45.126Z,100310.25
2022-07-29T17:07:15.974Z,100308.91
2022-07-29T17:09:45.316Z,100305.44
2022-07-29T17:12:15.437Z,100300.06
2022-07-29T17:14:48.374Z,100304.66
2022-07-29T17:17:20.880Z,100311.19
2022-07-29T17:20:07.943Z,100316.28
2022-07-29T17:22:36.236Z,100325.53
2022-07-29T17:25:06.863Z,100327.41
2022-07-29T17:27:35.531Z,100333.72
2022-07-29T17:30:05.643Z,100350.25
2022-07-29T17:32:36.445Z,100341.31
2022-07-29T17:35:24.698Z,100346.28
2022-07-29T17:37:52.858Z,100343.97
2022-07-29T17:40:22.385Z,100347.44
2022-07-29T17:42:50.431Z,100354.81
2022-07-29T17:45:20.833Z,100362.44
2022-07-29T17:47:48.802Z,100366.09
2022-07-29T17:50:16.920Z,100366.44
2022-07-29T17:52:47.494Z,100371.47
2022-07-29T17:55:15.485Z,100372.13
2022-07-29T17:57:44.675Z,100365.19
2022-07-29T18:00:15.578Z,100373.63
2022-07-29T18:02:45.998Z,100366.13
2022-07-29T18:05:14.042Z,100375.38
2022-07-29T18:07:41.923Z,100370.44
2022-07-29T18:10:10.772Z,100375.28
2022-07-29T18:12:38.726Z,100384.59
2022-07-29T18:15:09.115Z,100393.56
2022-07-29T18:17:56.598Z,100379.53
2022-07-29T18:20:26.303Z,100386.81
2022-07-29T18:22:56.646Z,100396.63
2022-07-29T18:25:25.631Z,100413.63
2022-07-29T18:27:58.430Z,100429.38
2022-07-29T18:30:30.823Z,100457.75
2022-07-29T18:33:20.387Z,100490.47
2022-07-29T18:35:47.944Z,100493.63
2022-07-29T18:38:16.231Z,100461.88
2022-07-29T18:40:45.587Z,100429.78
2022-07-29T18:43:16.339Z,100428.72
2022-07-29T18:45:45.667Z,100425.41
2022-07-29T18:48:13.806Z,100430.41
2022-07-29T18:50:44.229Z,100429.56
2022-07-29T18:53:12.222Z,100424.59
2022-07-29T18:55:42.734Z,100423.56
2022-07-29T18:58:12.849Z,100414.69
2022-07-29T19:00:40.897Z,100399.38
2022-07-29T19:03:13.316Z,100385.50
2022-07-29T19:05:41.424Z,100383.59
2022-07-29T19:08:10.276Z,100399.09
2022-07-29T19:10:40.625Z,100420.75
2022-07-29T19:13:13.475Z,100444.34
2022-07-29T19:15:41.727Z,100461.44
2022-07-29T19:18:09.610Z,100466.94
2022-07-29T19:20:39.312Z,100461.94
2022-07-29T19:23:07.369Z,100461.31
2022-07-29T19:25:35.978Z,100461.91
2022-07-29T19:28:03.940Z,100464.16
2022-07-29T19:30:32.034Z,100482.00
2022-07-29T19:33:00.060Z,100484.47
2022-07-29T19:35:32.216Z,100485.25
2022-07-29T19:38:04.322Z,100482.13
2022-07-29T19:40:32.577Z,100480.22
2022-07-29T19:43:00.672Z,100483.09
2022-07-29T19:45:30.865Z,100481.41
2022-07-29T19:48:02.749Z,100479.09
2022-07-29T19:50:34.040Z,100487.53
2022-07-29T19:53:03.807Z,100503.03
2022-07-29T19:55:31.771Z,100503.38
2022-07-29T19:57:59.875Z,100507.28
2022-07-29T20:00:28.184Z,100514.72
2022-07-29T20:02:57.347Z,100518.59
2022-07-29T20:05:28.197Z,100523.16
2022-07-29T20:07:56.526Z,100534.44
2022-07-29T20:10:25.941Z,100537.34
2022-07-29T20:12:55.392Z,100534.44
2022-07-29T20:15:23.584Z,100534.44
2022-07-29T20:17:56.589Z,100525.41
2022-07-29T20:20:25.712Z,100534.00
2022-07-29T20:22:53.807Z,100536.69
2022-07-29T20:25:25.252Z,100534.00
2022-07-29T20:27:55.482Z,100542.72
2022-07-29T20:30:26.795Z,100539.81
2022-07-29T20:32:55.515Z,100543.97
2022-07-29T20:35:23.585Z,100542.75
2022-07-29T20:37:55.781Z,100533.31
2022-07-29T20:40:27.246Z,100540.16
2022-07-29T20:42:57.744Z,100544.41
2022-07-29T20:45:26.801Z,100543.72
2022-07-29T20:47:54.972Z,100544.69
2022-07-29T20:50:24.507Z,100545.88
2022-07-29T20:52:53.475Z,100548.22
2022-07-29T20:55:21.971Z,100544.28
2022-07-29T20:57:51.387Z,100542.63
2022-07-29T21:00:19.435Z,100541.81
2022-07-29T21:02:47.908Z,100540.16
2022-07-29T21:05:16.602Z,100539.13
2022-07-29T21:07:44.658Z,100540.53
2022-07-29T21:10:14.166Z,100541.38
2022-07-29T21:12:42.874Z,100540.34
2022-07-29T21:15:13.469Z,100556.44
2022-07-29T21:17:46.796Z,100560.97
2022-07-29T21:20:15.830Z,100553.56
2022-07-29T21:22:46.651Z,100557.50
2022-07-29T21:25:17.122Z,100557.16
2022-07-29T21:28:02.849Z,100562.13
2022-07-29T21:30:32.347Z,100560.81
2022-07-29T21:33:00.328Z,100550.03
2022-07-29T21:35:45.363Z,100547.09
2022-07-29T21:38:18.270Z,100540.34
2022-07-29T21:40:47.458Z,100544.81
2022-07-29T21:43:16.581Z,100547.03
2022-07-29T21:45:50.182Z,100542.25
2022-07-29T21:48:19.333Z,100536.81
2022-07-29T21:50:48.448Z,100539.41
2022-07-29T21:53:22.101Z,100550.25
2022-07-29T21:55:51.661Z,100554.13
2022-07-29T21:58:24.684Z,100561.09
2022-07-29T22:00:54.332Z,100561.25
2022-07-29T22:03:22.486Z,100560.00
2022-07-29T22:05:53.197Z,100547.78
2022-07-29T22:08:21.351Z,100547.50
2022-07-29T22:10:49.659Z,100549.94
2022-07-29T22:13:17.824Z,100543.91
2022-07-29T22:15:47.245Z,100545.31
2022-07-29T22:18:19.566Z,100543.38
2022-07-29T22:20:51.634Z,100536.69
2022-07-29T22:23:19.886Z,100533.75
2022-07-29T22:25:47.929Z,100527.94
2022-07-29T22:28:16.409Z,100520.06
2022-07-29T22:30:44.510Z,100527.00
2022-07-29T22:33:17.830Z,100524.69
2022-07-29T22:35:48.516Z,100530.59
2022-07-29T22:38:17.517Z,100532.16
2022-07-29T22:40:46.849Z,100532.97
2022-07-29T22:43:16.852Z,100530.69
2022-07-29T22:45:45.060Z,100534.72
2022-07-29T22:48:13.355Z,100537.97
2022-07-29T22:50:42.405Z,100534.16
2022-07-29T22:53:14.259Z,100530.38
2022-07-29T22:55:43.030Z,100528.91
2022-07-29T22:58:11.951Z,100529.06
2022-07-29T23:00:40.211Z,100524.91
2022-07-29T23:03:10.524Z,100521.78
2022-07-29T23:05:38.474Z,100542.19
2022-07-29T23:08:06.508Z,100535.91
2022-07-29T23:10:35.979Z,100551.50
2022-07-29T23:13:03.980Z,100553.69
2022-07-29T23:15:32.034Z,100560.88
2022-07-29T23:18:00.728Z,100556.53
2022-07-29T23:20:29.186Z,100549.69
2022-07-29T23:22:57.119Z,100555.22
2022-07-29T23:25:25.256Z,100556.56
2022-07-29T23:27:54.564Z,100559.38
2022-07-29T23:30:22.813Z,100568.94
2022-07-29T23:32:50.908Z,100554.91
2022-07-29T23:35:19.228Z,100560.28
2022-07-29T23:37:47.177Z,100564.31
2022-07-29T23:40:17.361Z,100568.81
2022-07-29T23:42:45.915Z,100574.63
2022-07-29T23:45:15.516Z,100576.50
2022-07-29T23:47:43.925Z,100583.97
2022-07-29T23:50:13.214Z,100584.50
2022-07-29T23:52:41.378Z,100573.81
2022-07-29T23:55:37.297Z,100572.63
2022-07-29T23:57:58.302Z,100571.78
